sensor_id;sensor_type;location;lat;lon;timestamp;temperature;humidity
34766;DHT22;20984;43.508;1.504;2024-01-27T00:01:34;8.70;99.90
34766;DHT22;20984;43.508;1.504;2024-01-27T00:04:00;8.70;99.90
34766;DHT22;20984;43.508;1.504;2024-01-27T00:06:25;8.80;99.90
34766;DHT22;20984;43.508;1.504;2024-01-27T00:08:51;8.70;99.90
34766;DHT22;20984;43.508;1.504;2024-01-27T00:11:16;8.80;99.90
34766;DHT22;20984;43.508;1.504;2024-01-27T00:13:42;8.70;99.90
34766;DHT22;20984;43.508;1.504;2024-01-27T00:16:08;8.70;99.90
34766;DHT22;20984;43.508;1.504;2024-01-27T00:18:37;8.70;99.90
34766;DHT22;20984;43.508;1.504;2024-01-27T00:21:03;8.70;99.90
34766;DHT22;20984;43.508;1.504;2024-01-27T00:23:29;8.70;99.90
34766;DHT22;20984;43.508;1.504;2024-01-27T00:25:55;8.70;99.90
34766;DHT22;20984;43.508;1.504;2024-01-27T00:28:20;8.70;99.90
34766;DHT22;20984;43.508;1.504;2024-01-27T00:30:46;8.70;99.90
34766;DHT22;20984;43.508;1.504;2024-01-27T00:33:11;8.60;99.90
34766;DHT22;20984;43.508;1.504;2024-01-27T00:35:37;8.60;99.90
34766;DHT22;20984;43.508;1.504;2024-01-27T00:38:02;8.60;99.90
34766;DHT22;20984;43.508;1.504;2024-01-27T00:40:28;8.70;99.90
34766;DHT22;20984;43.508;1.504;2024-01-27T00:42:54;8.60;99.90
34766;DHT22;20984;43.508;1.504;2024-01-27T00:45:19;8.70;99.90
34766;DHT22;20984;43.508;1.504;2024-01-27T00:47:48;8.60;99.90
34766;DHT22;20984;43.508;1.504;2024-01-27T00:50:14;8.50;99.90
34766;DHT22;20984;43.508;1.504;2024-01-27T00:52:40;8.50;99.90
34766;DHT22;20984;43.508;1.504;2024-01-27T00:55:05;8.50;99.90
34766;DHT22;20984;43.508;1.504;2024-01-27T00:57:31;8.50;99.90
34766;DHT22;20984;43.508;1.504;2024-01-27T00:59:56;8.50;99.90
34766;DHT22;20984;43.508;1.504;2024-01-27T01:02:22;8.50;99.90
34766;DHT22;20984;43.508;1.504;2024-01-27T01:04:47;8.50;99.90
34766;DHT22;20984;43.508;1.504;2024-01-27T01:07:13;8.40;99.90
34766;DHT22;20984;43.508;1.504;2024-01-27T01:09:38;8.40;99.90
34766;DHT22;20984;43.508;1.504;2024-01-27T01:12:04;8.40;99.90
34766;DHT22;20984;43.508;1.504;2024-01-27T01:14:30;8.40;99.90
34766;DHT22;20984;43.508;1.504;2024-01-27T01:16:55;8.30;99.90
34766;DHT22;20984;43.508;1.504;2024-01-27T01:19:21;8.30;99.90
34766;DHT22;20984;43.508;1.504;2024-01-27T01:21:46;8.30;99.90
34766;DHT22;20984;43.508;1.504;2024-01-27T01:24:12;8.30;99.90
34766;DHT22;20984;43.508;1.504;2024-01-27T01:26:37;8.20;99.90
34766;DHT22;20984;43.508;1.504;2024-01-27T01:29:03;8.20;99.90
34766;DHT22;20984;43.508;1.504;2024-01-27T01:31:28;8.20;99.90
34766;DHT22;20984;43.508;1.504;2024-01-27T01:33:54;8.20;99.90
34766;DHT22;20984;43.508;1.504;2024-01-27T01:36:19;8.20;99.90
34766;DHT22;20984;43.508;1.504;2024-01-27T01:38:45;8.20;99.90
34766;DHT22;20984;43.508;1.504;2024-01-27T01:41:11;8.20;99.90
34766;DHT22;20984;43.508;1.504;2024-01-27T01:43:36;8.20;99.90
34766;DHT22;20984;43.508;1.504;2024-01-27T01:46:02;8.20;99.90
34766;DHT22;20984;43.508;1.504;2024-01-27T01:48:28;8.10;99.90
34766;DHT22;20984;43.508;1.504;2024-01-27T01:50:54;8.10;99.90
34766;DHT22;20984;43.508;1.504;2024-01-27T01:53:20;8.10;99.90
34766;DHT22;20984;43.508;1.504;2024-01-27T01:55:46;7.90;99.90
34766;DHT22;20984;43.508;1.504;2024-01-27T01:58:12;7.90;99.90
34766;DHT22;20984;43.508;1.504;2024-01-27T02:00:37;7.90;99.90
34766;DHT22;20984;43.508;1.504;2024-01-27T02:03:03;7.90;99.90
34766;DHT22;20984;43.508;1.504;2024-01-27T02:05:28;7.90;99.90
34766;DHT22;20984;43.508;1.504;2024-01-27T02:07:54;7.90;99.90
34766;DHT22;20984;43.508;1.504;2024-01-27T02:10:21;7.90;99.90
34766;DHT22;20984;43.508;1.504;2024-01-27T02:12:47;7.90;99.90
34766;DHT22;20984;43.508;1.504;2024-01-27T02:15:13;7.90;99.90
34766;DHT22;20984;43.508;1.504;2024-01-27T02:17:39;7.90;99.90
34766;DHT22;20984;43.508;1.504;2024-01-27T02:20:05;7.90;99.90
34766;DHT22;20984;43.508;1.504;2024-01-27T02:22:32;7.90;99.90
34766;DHT22;20984;43.508;1.504;2024-01-27T02:24:58;7.90;99.90
34766;DHT22;20984;43.508;1.504;2024-01-27T02:27:23;7.90;99.90
34766;DHT22;20984;43.508;1.504;2024-01-27T02:29:49;7.90;99.90
34766;DHT22;20984;43.508;1.504;2024-01-27T02:32:14;7.90;99.90
34766;DHT22;20984;43.508;1.504;2024-01-27T02:34:40;7.80;99.90
34766;DHT22;20984;43.508;1.504;2024-01-27T02:37:05;7.80;99.90
34766;DHT22;20984;43.508;1.504;2024-01-27T02:39:31;7.70;99.90
34766;DHT22;20984;43.508;1.504;2024-01-27T02:41:56;7.80;99.90
34766;DHT22;20984;43.508;1.504;2024-01-27T02:44:22;7.70;99.90
34766;DHT22;20984;43.508;1.504;2024-01-27T02:46:47;7.70;99.90
34766;DHT22;20984;43.508;1.504;2024-01-27T02:49:13;7.80;99.90
34766;DHT22;20984;43.508;1.504;2024-01-27T02:51:39;7.80;99.90
34766;DHT22;20984;43.508;1.504;2024-01-27T02:54:04;7.80;99.90
34766;DHT22;20984;43.508;1.504;2024-01-27T02:56:30;7.80;99.90
34766;DHT22;20984;43.508;1.504;2024-01-27T02:58:55;7.80;99.90
34766;DHT22;20984;43.508;1.504;2024-01-27T03:01:21;7.80;99.90
34766;DHT22;20984;43.508;1.504;2024-01-27T03:03:46;7.70;99.90
34766;DHT22;20984;43.508;1.504;2024-01-27T03:06:12;7.70;99.90
34766;DHT22;20984;43.508;1.504;2024-01-27T03:08:37;7.70;99.90
34766;DHT22;20984;43.508;1.504;2024-01-27T03:11:03;7.70;99.90
34766;DHT22;20984;43.508;1.504;2024-01-27T03:13:28;7.70;99.90
34766;DHT22;20984;43.508;1.504;2024-01-27T03:15:54;7.70;99.90
34766;DHT22;20984;43.508;1.504;2024-01-27T03:18:21;7.70;99.90
34766;DHT22;20984;43.508;1.504;2024-01-27T03:20:46;7.70;99.90
34766;DHT22;20984;43.508;1.504;2024-01-27T03:23:12;7.70;99.90
34766;DHT22;20984;43.508;1.504;2024-01-27T03:25:37;7.70;99.90
34766;DHT22;20984;43.508;1.504;2024-01-27T03:28:03;7.60;99.90
34766;DHT22;20984;43.508;1.504;2024-01-27T03:30:28;7.60;99.90
34766;DHT22;20984;43.508;1.504;2024-01-27T03:32:54;7.60;99.90
34766;DHT22;20984;43.508;1.504;2024-01-27T03:35:19;7.60;99.90
34766;DHT22;20984;43.508;1.504;2024-01-27T03:37:45;7.60;99.90
34766;DHT22;20984;43.508;1.504;2024-01-27T03:40:11;7.50;99.90
34766;DHT22;20984;43.508;1.504;2024-01-27T03:42:36;7.50;99.90
34766;DHT22;20984;43.508;1.504;2024-01-27T03:45:02;7.50;99.90
34766;DHT22;20984;43.508;1.504;2024-01-27T03:47:28;7.50;99.90
34766;DHT22;20984;43.508;1.504;2024-01-27T03:49:53;7.50;99.90
34766;DHT22;20984;43.508;1.504;2024-01-27T03:52:19;7.50;99.90
34766;DHT22;20984;43.508;1.504;2024-01-27T03:54:44;7.50;99.90
34766;DHT22;20984;43.508;1.504;2024-01-27T03:57:10;7.40;99.90
34766;DHT22;20984;43.508;1.504;2024-01-27T03:59:35;7.40;99.90
34766;DHT22;20984;43.508;1.504;2024-01-27T04:02:01;7.40;99.90
34766;DHT22;20984;43.508;1.504;2024-01-27T04:04:27;7.30;99.90
34766;DHT22;20984;43.508;1.504;2024-01-27T04:06:52;7.30;99.90
34766;DHT22;20984;43.508;1.504;2024-01-27T04:09:18;7.40;99.90
34766;DHT22;20984;43.508;1.504;2024-01-27T04:11:43;7.40;99.90
34766;DHT22;20984;43.508;1.504;2024-01-27T04:14:09;7.30;99.90
34766;DHT22;20984;43.508;1.504;2024-01-27T04:16:35;7.30;99.90
34766;DHT22;20984;43.508;1.504;2024-01-27T04:19:00;7.30;99.90
34766;DHT22;20984;43.508;1.504;2024-01-27T04:21:26;7.30;99.90
34766;DHT22;20984;43.508;1.504;2024-01-27T04:23:51;7.30;99.90
34766;DHT22;20984;43.508;1.504;2024-01-27T04:26:17;7.30;99.90
34766;DHT22;20984;43.508;1.504;2024-01-27T04:28:42;7.30;99.90
34766;DHT22;20984;43.508;1.504;2024-01-27T04:31:08;7.20;99.90
34766;DHT22;20984;43.508;1.504;2024-01-27T04:33:33;7.20;99.90
34766;DHT22;20984;43.508;1.504;2024-01-27T04:35:59;7.20;99.90
34766;DHT22;20984;43.508;1.504;2024-01-27T04:38:24;7.20;99.90
34766;DHT22;20984;43.508;1.504;2024-01-27T04:40:50;7.20;99.90
34766;DHT22;20984;43.508;1.504;2024-01-27T04:43:16;7.20;99.90
34766;DHT22;20984;43.508;1.504;2024-01-27T04:45:42;7.20;99.90
34766;DHT22;20984;43.508;1.504;2024-01-27T04:48:08;7.20;99.90
34766;DHT22;20984;43.508;1.504;2024-01-27T04:50:33;7.20;99.90
34766;DHT22;20984;43.508;1.504;2024-01-27T04:52:59;7.30;99.90
34766;DHT22;20984;43.508;1.504;2024-01-27T04:55:25;7.30;99.90
34766;DHT22;20984;43.508;1.504;2024-01-27T04:57:50;7.30;99.90
34766;DHT22;20984;43.508;1.504;2024-01-27T05:00:16;7.30;99.90
34766;DHT22;20984;43.508;1.504;2024-01-27T05:02:41;7.30;99.90
34766;DHT22;20984;43.508;1.504;2024-01-27T05:05:07;7.30;99.90
34766;DHT22;20984;43.508;1.504;2024-01-27T05:07:33;7.20;99.90
34766;DHT22;20984;43.508;1.504;2024-01-27T05:09:59;7.20;99.90
34766;DHT22;20984;43.508;1.504;2024-01-27T05:12:24;7.20;99.90
34766;DHT22;20984;43.508;1.504;2024-01-27T05:14:50;7.20;99.90
34766;DHT22;20984;43.508;1.504;2024-01-27T05:17:15;7.20;99.90
34766;DHT22;20984;43.508;1.504;2024-01-27T05:19:41;7.20;99.90
34766;DHT22;20984;43.508;1.504;2024-01-27T05:22:07;7.20;99.90
34766;DHT22;20984;43.508;1.504;2024-01-27T05:24:32;7.20;99.90
34766;DHT22;20984;43.508;1.504;2024-01-27T05:26:58;7.20;99.90
34766;DHT22;20984;43.508;1.504;2024-01-27T05:29:25;7.20;99.90
34766;DHT22;20984;43.508;1.504;2024-01-27T05:31:51;7.10;99.90
34766;DHT22;20984;43.508;1.504;2024-01-27T05:34:16;7.10;99.90
34766;DHT22;20984;43.508;1.504;2024-01-27T05:36:42;7.20;99.90
34766;DHT22;20984;43.508;1.504;2024-01-27T05:39:07;7.10;99.90
34766;DHT22;20984;43.508;1.504;2024-01-27T05:41:33;7.10;99.90
34766;DHT22;20984;43.508;1.504;2024-01-27T05:43:59;7.10;99.90
34766;DHT22;20984;43.508;1.504;2024-01-27T05:46:25;7.10;99.90
34766;DHT22;20984;43.508;1.504;2024-01-27T05:48:51;7.10;99.90
34766;DHT22;20984;43.508;1.504;2024-01-27T05:51:22;7.10;99.90
34766;DHT22;20984;43.508;1.504;2024-01-27T05:53:48;7.10;99.90
34766;DHT22;20984;43.508;1.504;2024-01-27T05:56:14;7.10;99.90
34766;DHT22;20984;43.508;1.504;2024-01-27T05:58:39;7.10;99.90
34766;DHT22;20984;43.508;1.504;2024-01-27T06:01:05;7.10;99.90
34766;DHT22;20984;43.508;1.504;2024-01-27T06:03:31;7.10;99.90
34766;DHT22;20984;43.508;1.504;2024-01-27T06:05:57;7.10;99.90
34766;DHT22;20984;43.508;1.504;2024-01-27T06:08:22;7.10;99.90
34766;DHT22;20984;43.508;1.504;2024-01-27T06:10:48;7.10;99.90
34766;DHT22;20984;43.508;1.504;2024-01-27T06:13:14;7.20;99.90
34766;DHT22;20984;43.508;1.504;2024-01-27T06:15:39;7.20;99.90
34766;DHT22;20984;43.508;1.504;2024-01-27T06:18:05;7.20;99.90
34766;DHT22;20984;43.508;1.504;2024-01-27T06:20:31;7.20;99.90
34766;DHT22;20984;43.508;1.504;2024-01-27T06:22:56;7.20;99.90
34766;DHT22;20984;43.508;1.504;2024-01-27T06:25:23;7.10;99.90
34766;DHT22;20984;43.508;1.504;2024-01-27T06:27:49;7.10;99.90
34766;DHT22;20984;43.508;1.504;2024-01-27T06:30:15;7.00;99.90
34766;DHT22;20984;43.508;1.504;2024-01-27T06:32:41;7.00;99.90
34766;DHT22;20984;43.508;1.504;2024-01-27T06:35:07;7.00;99.90
34766;DHT22;20984;43.508;1.504;2024-01-27T06:37:32;7.00;99.90
34766;DHT22;20984;43.508;1.504;2024-01-27T06:39:58;7.00;99.90
34766;DHT22;20984;43.508;1.504;2024-01-27T06:42:23;7.00;99.90
34766;DHT22;20984;43.508;1.504;2024-01-27T06:44:49;7.00;99.90
34766;DHT22;20984;43.508;1.504;2024-01-27T06:47:15;6.90;99.90
34766;DHT22;20984;43.508;1.504;2024-01-27T06:49:40;6.90;99.90
34766;DHT22;20984;43.508;1.504;2024-01-27T06:52:06;6.80;99.90
34766;DHT22;20984;43.508;1.504;2024-01-27T06:54:32;6.80;99.90
34766;DHT22;20984;43.508;1.504;2024-01-27T06:56:59;6.80;99.90
34766;DHT22;20984;43.508;1.504;2024-01-27T06:59:25;6.80;99.90
34766;DHT22;20984;43.508;1.504;2024-01-27T07:01:50;6.70;99.90
34766;DHT22;20984;43.508;1.504;2024-01-27T07:04:16;6.70;99.90
34766;DHT22;20984;43.508;1.504;2024-01-27T07:06:42;6.70;99.90
34766;DHT22;20984;43.508;1.504;2024-01-27T07:09:08;6.60;99.90
34766;DHT22;20984;43.508;1.504;2024-01-27T07:11:35;6.70;99.90
34766;DHT22;20984;43.508;1.504;2024-01-27T07:14:00;6.70;99.90
34766;DHT22;20984;43.508;1.504;2024-01-27T07:16:26;6.80;99.90
34766;DHT22;20984;43.508;1.504;2024-01-27T07:18:51;6.70;99.90
34766;DHT22;20984;43.508;1.504;2024-01-27T07:21:17;6.70;99.90
34766;DHT22;20984;43.508;1.504;2024-01-27T07:23:43;6.70;99.90
34766;DHT22;20984;43.508;1.504;2024-01-27T07:26:11;6.70;99.90
34766;DHT22;20984;43.508;1.504;2024-01-27T07:28:37;6.70;99.90
34766;DHT22;20984;43.508;1.504;2024-01-27T07:31:03;6.80;99.90
34766;DHT22;20984;43.508;1.504;2024-01-27T07:33:28;6.80;99.90
34766;DHT22;20984;43.508;1.504;2024-01-27T07:35:54;6.70;99.90
34766;DHT22;20984;43.508;1.504;2024-01-27T07:38:19;6.70;99.90
34766;DHT22;20984;43.508;1.504;2024-01-27T07:40:45;6.60;99.90
34766;DHT22;20984;43.508;1.504;2024-01-27T07:43:10;6.70;99.90
34766;DHT22;20984;43.508;1.504;2024-01-27T07:45:36;6.70;99.90
34766;DHT22;20984;43.508;1.504;2024-01-27T07:48:01;6.70;99.90
34766;DHT22;20984;43.508;1.504;2024-01-27T07:50:27;6.70;99.90
34766;DHT22;20984;43.508;1.504;2024-01-27T07:52:53;6.70;99.90
34766;DHT22;20984;43.508;1.504;2024-01-27T07:55:18;6.70;99.90
34766;DHT22;20984;43.508;1.504;2024-01-27T07:57:44;6.70;99.90
34766;DHT22;20984;43.508;1.504;2024-01-27T08:00:09;6.60;99.90
34766;DHT22;20984;43.508;1.504;2024-01-27T08:02:35;6.70;99.90
34766;DHT22;20984;43.508;1.504;2024-01-27T08:05:02;6.60;99.90
34766;DHT22;20984;43.508;1.504;2024-01-27T08:07:29;6.70;99.90
34766;DHT22;20984;43.508;1.504;2024-01-27T08:09:54;6.70;99.90
34766;DHT22;20984;43.508;1.504;2024-01-27T08:12:22;6.70;99.90
34766;DHT22;20984;43.508;1.504;2024-01-27T08:14:47;6.70;99.90
34766;DHT22;20984;43.508;1.504;2024-01-27T08:17:13;6.80;99.90
34766;DHT22;20984;43.508;1.504;2024-01-27T08:19:39;6.90;99.90
34766;DHT22;20984;43.508;1.504;2024-01-27T08:22:04;6.80;99.90
34766;DHT22;20984;43.508;1.504;2024-01-27T08:24:30;6.90;99.90
34766;DHT22;20984;43.508;1.504;2024-01-27T08:26:55;6.90;99.90
34766;DHT22;20984;43.508;1.504;2024-01-27T08:29:21;6.90;99.90
34766;DHT22;20984;43.508;1.504;2024-01-27T08:31:46;6.90;99.90
34766;DHT22;20984;43.508;1.504;2024-01-27T08:34:12;6.90;99.90
34766;DHT22;20984;43.508;1.504;2024-01-27T08:36:37;6.90;99.90
34766;DHT22;20984;43.508;1.504;2024-01-27T08:39:03;6.90;99.90
34766;DHT22;20984;43.508;1.504;2024-01-27T08:41:29;6.90;99.90
34766;DHT22;20984;43.508;1.504;2024-01-27T08:43:55;6.90;99.90
34766;DHT22;20984;43.508;1.504;2024-01-27T08:46:20;6.90;99.90
34766;DHT22;20984;43.508;1.504;2024-01-27T08:48:47;6.90;99.90
34766;DHT22;20984;43.508;1.504;2024-01-27T08:51:13;6.80;99.90
34766;DHT22;20984;43.508;1.504;2024-01-27T08:53:38;6.80;99.90
34766;DHT22;20984;43.508;1.504;2024-01-27T08:56:04;6.80;99.90
34766;DHT22;20984;43.508;1.504;2024-01-27T08:58:30;6.80;99.90
34766;DHT22;20984;43.508;1.504;2024-01-27T09:00:56;6.80;99.90
34766;DHT22;20984;43.508;1.504;2024-01-27T09:03:21;6.80;99.90
34766;DHT22;20984;43.508;1.504;2024-01-27T09:05:47;6.80;99.90
34766;DHT22;20984;43.508;1.504;2024-01-27T09:08:13;6.90;99.90
34766;DHT22;20984;43.508;1.504;2024-01-27T09:10:38;7.00;99.90
34766;DHT22;20984;43.508;1.504;2024-01-27T09:13:04;6.90;99.90
34766;DHT22;20984;43.508;1.504;2024-01-27T09:15:30;6.90;99.90
34766;DHT22;20984;43.508;1.504;2024-01-27T09:17:55;7.00;99.90
34766;DHT22;20984;43.508;1.504;2024-01-27T09:20:21;7.10;99.90
34766;DHT22;20984;43.508;1.504;2024-01-27T09:22:47;7.20;99.90
34766;DHT22;20984;43.508;1.504;2024-01-27T09:25:13;7.30;99.90
34766;DHT22;20984;43.508;1.504;2024-01-27T09:27:39;7.30;99.90
34766;DHT22;20984;43.508;1.504;2024-01-27T09:30:06;7.10;99.90
34766;DHT22;20984;43.508;1.504;2024-01-27T09:32:32;7.20;99.90
34766;DHT22;20984;43.508;1.504;2024-01-27T09:34:57;7.30;99.90
34766;DHT22;20984;43.508;1.504;2024-01-27T09:37:23;7.30;99.90
34766;DHT22;20984;43.508;1.504;2024-01-27T09:39:49;7.40;99.90
34766;DHT22;20984;43.508;1.504;2024-01-27T09:42:14;7.50;99.90
34766;DHT22;20984;43.508;1.504;2024-01-27T09:44:42;7.50;99.90
34766;DHT22;20984;43.508;1.504;2024-01-27T09:47:08;7.60;99.90
34766;DHT22;20984;43.508;1.504;2024-01-27T09:49:34;7.70;99.90
34766;DHT22;20984;43.508;1.504;2024-01-27T09:52:01;7.60;99.90
34766;DHT22;20984;43.508;1.504;2024-01-27T09:54:26;7.60;99.90
34766;DHT22;20984;43.508;1.504;2024-01-27T09:56:52;7.70;99.90
34766;DHT22;20984;43.508;1.504;2024-01-27T09:59:27;7.70;99.90
34766;DHT22;20984;43.508;1.504;2024-01-27T10:01:53;7.80;99.90
34766;DHT22;20984;43.508;1.504;2024-01-27T10:04:19;7.80;99.90
34766;DHT22;20984;43.508;1.504;2024-01-27T10:06:46;7.90;99.90
34766;DHT22;20984;43.508;1.504;2024-01-27T10:09:13;7.90;99.90
34766;DHT22;20984;43.508;1.504;2024-01-27T10:11:39;7.90;99.90
34766;DHT22;20984;43.508;1.504;2024-01-27T10:14:07;7.80;99.90
34766;DHT22;20984;43.508;1.504;2024-01-27T10:16:42;7.80;99.90
34766;DHT22;20984;43.508;1.504;2024-01-27T10:19:11;7.90;99.90
34766;DHT22;20984;43.508;1.504;2024-01-27T10:21:39;8.10;99.90
34766;DHT22;20984;43.508;1.504;2024-01-27T10:24:04;8.10;99.90
34766;DHT22;20984;43.508;1.504;2024-01-27T10:26:32;8.10;99.90
34766;DHT22;20984;43.508;1.504;2024-01-27T10:28:58;8.00;99.90
34766;DHT22;20984;43.508;1.504;2024-01-27T10:31:33;8.20;99.90
34766;DHT22;20984;43.508;1.504;2024-01-27T10:33:59;8.30;99.90
34766;DHT22;20984;43.508;1.504;2024-01-27T10:36:27;8.50;99.90
34766;DHT22;20984;43.508;1.504;2024-01-27T10:39:13;8.50;99.90
34766;DHT22;20984;43.508;1.504;2024-01-27T10:41:38;8.60;99.90
34766;DHT22;20984;43.508;1.504;2024-01-27T10:44:04;8.50;99.90
34766;DHT22;20984;43.508;1.504;2024-01-27T10:46:30;8.50;99.90
34766;DHT22;20984;43.508;1.504;2024-01-27T10:48:56;8.50;99.90
34766;DHT22;20984;43.508;1.504;2024-01-27T10:51:23;8.60;99.90
34766;DHT22;20984;43.508;1.504;2024-01-27T10:53:50;8.50;99.90
34766;DHT22;20984;43.508;1.504;2024-01-27T10:56:17;8.30;99.90
34766;DHT22;20984;43.508;1.504;2024-01-27T10:58:44;8.50;99.90
34766;DHT22;20984;43.508;1.504;2024-01-27T11:01:12;8.50;99.90
34766;DHT22;20984;43.508;1.504;2024-01-27T11:03:39;8.60;99.90
34766;DHT22;20984;43.508;1.504;2024-01-27T11:06:06;8.60;99.90
34766;DHT22;20984;43.508;1.504;2024-01-27T11:08:35;8.70;99.90
34766;DHT22;20984;43.508;1.504;2024-01-27T11:11:02;8.80;99.90
34766;DHT22;20984;43.508;1.504;2024-01-27T11:13:28;8.80;99.90
34766;DHT22;20984;43.508;1.504;2024-01-27T11:15:55;8.80;99.90
34766;DHT22;20984;43.508;1.504;2024-01-27T11:18:21;8.70;99.90
34766;DHT22;20984;43.508;1.504;2024-01-27T11:20:46;8.70;99.90
34766;DHT22;20984;43.508;1.504;2024-01-27T11:23:12;8.80;99.90
34766;DHT22;20984;43.508;1.504;2024-01-27T11:25:39;8.70;99.90
34766;DHT22;20984;43.508;1.504;2024-01-27T11:28:11;8.70;99.90
34766;DHT22;20984;43.508;1.504;2024-01-27T11:30:39;8.70;99.90
34766;DHT22;20984;43.508;1.504;2024-01-27T11:33:05;8.90;99.90
34766;DHT22;20984;43.508;1.504;2024-01-27T11:35:31;8.80;99.90
34766;DHT22;20984;43.508;1.504;2024-01-27T11:37:57;8.90;99.90
34766;DHT22;20984;43.508;1.504;2024-01-27T11:40:22;9.00;99.90
34766;DHT22;20984;43.508;1.504;2024-01-27T11:42:57;9.00;99.90
34766;DHT22;20984;43.508;1.504;2024-01-27T11:45:23;9.20;99.90
34766;DHT22;20984;43.508;1.504;2024-01-27T11:47:48;9.30;99.90
34766;DHT22;20984;43.508;1.504;2024-01-27T11:50:14;9.30;99.90
34766;DHT22;20984;43.508;1.504;2024-01-27T11:52:41;9.40;99.90
34766;DHT22;20984;43.508;1.504;2024-01-27T11:55:08;9.40;99.90
34766;DHT22;20984;43.508;1.504;2024-01-27T11:57:34;9.60;99.90
34766;DHT22;20984;43.508;1.504;2024-01-27T11:59:59;9.70;99.90
34766;DHT22;20984;43.508;1.504;2024-01-27T12:02:25;9.70;99.90
34766;DHT22;20984;43.508;1.504;2024-01-27T12:04:50;9.60;99.90
34766;DHT22;20984;43.508;1.504;2024-01-27T12:07:16;9.60;99.90
34766;DHT22;20984;43.508;1.504;2024-01-27T12:09:44;9.70;99.90
34766;DHT22;20984;43.508;1.504;2024-01-27T12:12:09;9.70;99.90
34766;DHT22;20984;43.508;1.504;2024-01-27T12:14:38;9.70;99.90
34766;DHT22;20984;43.508;1.504;2024-01-27T12:17:04;9.70;99.90
34766;DHT22;20984;43.508;1.504;2024-01-27T12:19:30;9.80;99.90
34766;DHT22;20984;43.508;1.504;2024-01-27T12:21:56;9.80;99.90
34766;DHT22;20984;43.508;1.504;2024-01-27T12:24:23;9.80;99.90
34766;DHT22;20984;43.508;1.504;2024-01-27T12:26:49;9.90;99.90
34766;DHT22;20984;43.508;1.504;2024-01-27T12:29:14;9.90;99.90
34766;DHT22;20984;43.508;1.504;2024-01-27T12:31:40;10.00;99.90
34766;DHT22;20984;43.508;1.504;2024-01-27T12:34:06;9.90;99.90
34766;DHT22;20984;43.508;1.504;2024-01-27T12:36:32;9.80;99.90
34766;DHT22;20984;43.508;1.504;2024-01-27T12:38:59;9.90;99.90
34766;DHT22;20984;43.508;1.504;2024-01-27T12:41:25;9.90;99.90
34766;DHT22;20984;43.508;1.504;2024-01-27T12:43:51;10.00;99.90
34766;DHT22;20984;43.508;1.504;2024-01-27T12:46:17;10.00;99.90
34766;DHT22;20984;43.508;1.504;2024-01-27T12:48:44;10.10;99.90
34766;DHT22;20984;43.508;1.504;2024-01-27T12:51:10;10.20;99.90
34766;DHT22;20984;43.508;1.504;2024-01-27T12:53:36;10.20;99.90
34766;DHT22;20984;43.508;1.504;2024-01-27T12:56:04;10.40;99.90
34766;DHT22;20984;43.508;1.504;2024-01-27T12:58:29;10.50;99.90
34766;DHT22;20984;43.508;1.504;2024-01-27T13:00:55;10.50;99.90
34766;DHT22;20984;43.508;1.504;2024-01-27T13:03:20;10.40;99.90
34766;DHT22;20984;43.508;1.504;2024-01-27T13:05:46;10.40;99.90
34766;DHT22;20984;43.508;1.504;2024-01-27T13:08:11;10.50;99.90
34766;DHT22;20984;43.508;1.504;2024-01-27T13:10:37;10.50;99.90
34766;DHT22;20984;43.508;1.504;2024-01-27T13:13:03;10.50;99.90
34766;DHT22;20984;43.508;1.504;2024-01-27T13:15:29;10.60;99.90
34766;DHT22;20984;43.508;1.504;2024-01-27T13:17:54;10.70;99.90
34766;DHT22;20984;43.508;1.504;2024-01-27T13:20:20;10.80;99.90
34766;DHT22;20984;43.508;1.504;2024-01-27T13:22:45;10.90;99.90
34766;DHT22;20984;43.508;1.504;2024-01-27T13:25:11;11.10;99.90
34766;DHT22;20984;43.508;1.504;2024-01-27T13:27:36;11.20;99.90
34766;DHT22;20984;43.508;1.504;2024-01-27T13:30:02;11.30;99.90
34766;DHT22;20984;43.508;1.504;2024-01-27T13:32:28;11.30;99.90
34766;DHT22;20984;43.508;1.504;2024-01-27T13:34:53;11.00;99.90
34766;DHT22;20984;43.508;1.504;2024-01-27T13:37:19;11.00;99.90
34766;DHT22;20984;43.508;1.504;2024-01-27T13:39:45;11.10;99.90
34766;DHT22;20984;43.508;1.504;2024-01-27T13:42:11;11.10;99.90
34766;DHT22;20984;43.508;1.504;2024-01-27T13:44:36;11.10;99.90
34766;DHT22;20984;43.508;1.504;2024-01-27T13:47:02;11.20;99.90
34766;DHT22;20984;43.508;1.504;2024-01-27T13:49:30;11.20;99.90
34766;DHT22;20984;43.508;1.504;2024-01-27T13:51:56;11.00;99.90
34766;DHT22;20984;43.508;1.504;2024-01-27T13:54:21;10.90;99.90
34766;DHT22;20984;43.508;1.504;2024-01-27T13:56:47;11.00;99.90
34766;DHT22;20984;43.508;1.504;2024-01-27T13:59:12;11.10;99.90
34766;DHT22;20984;43.508;1.504;2024-01-27T14:01:38;11.20;99.90
34766;DHT22;20984;43.508;1.504;2024-01-27T14:04:03;11.10;99.90
34766;DHT22;20984;43.508;1.504;2024-01-27T14:06:29;11.30;99.90
34766;DHT22;20984;43.508;1.504;2024-01-27T14:08:54;11.30;99.90
34766;DHT22;20984;43.508;1.504;2024-01-27T14:11:20;11.30;99.90
34766;DHT22;20984;43.508;1.504;2024-01-27T14:13:47;11.10;99.90
34766;DHT22;20984;43.508;1.504;2024-01-27T14:16:12;11.20;99.90
34766;DHT22;20984;43.508;1.504;2024-01-27T14:18:38;11.30;99.90
34766;DHT22;20984;43.508;1.504;2024-01-27T14:21:03;11.40;99.90
34766;DHT22;20984;43.508;1.504;2024-01-27T14:23:29;11.50;99.90
34766;DHT22;20984;43.508;1.504;2024-01-27T14:25:54;11.60;99.90
34766;DHT22;20984;43.508;1.504;2024-01-27T14:28:22;11.60;99.90
34766;DHT22;20984;43.508;1.504;2024-01-27T14:30:47;11.60;99.90
34766;DHT22;20984;43.508;1.504;2024-01-27T14:33:13;11.60;99.90
34766;DHT22;20984;43.508;1.504;2024-01-27T14:35:41;11.50;99.90
34766;DHT22;20984;43.508;1.504;2024-01-27T14:38:07;11.50;99.90
34766;DHT22;20984;43.508;1.504;2024-01-27T14:40:34;11.40;99.90
34766;DHT22;20984;43.508;1.504;2024-01-27T14:43:00;11.30;99.90
34766;DHT22;20984;43.508;1.504;2024-01-27T14:45:30;11.20;99.90
34766;DHT22;20984;43.508;1.504;2024-01-27T14:47:56;11.20;99.90
34766;DHT22;20984;43.508;1.504;2024-01-27T14:50:22;11.10;99.90
34766;DHT22;20984;43.508;1.504;2024-01-27T14:52:47;11.10;99.90
34766;DHT22;20984;43.508;1.504;2024-01-27T14:55:13;11.30;99.90
34766;DHT22;20984;43.508;1.504;2024-01-27T14:57:40;11.40;99.90
34766;DHT22;20984;43.508;1.504;2024-01-27T15:00:06;11.40;99.90
34766;DHT22;20984;43.508;1.504;2024-01-27T15:02:32;11.30;99.90
34766;DHT22;20984;43.508;1.504;2024-01-27T15:04:57;11.20;99.90
34766;DHT22;20984;43.508;1.504;2024-01-27T15:07:23;11.10;99.90
34766;DHT22;20984;43.508;1.504;2024-01-27T15:09:53;10.90;99.90
34766;DHT22;20984;43.508;1.504;2024-01-27T15:12:18;10.90;99.90
34766;DHT22;20984;43.508;1.504;2024-01-27T15:14:44;10.90;99.90
34766;DHT22;20984;43.508;1.504;2024-01-27T15:17:09;10.80;99.90
34766;DHT22;20984;43.508;1.504;2024-01-27T15:19:35;10.60;99.90
34766;DHT22;20984;43.508;1.504;2024-01-27T15:22:00;10.60;99.90
34766;DHT22;20984;43.508;1.504;2024-01-27T15:24:26;10.50;99.90
34766;DHT22;20984;43.508;1.504;2024-01-27T15:26:52;10.40;99.90
34766;DHT22;20984;43.508;1.504;2024-01-27T15:29:18;10.40;99.90
34766;DHT22;20984;43.508;1.504;2024-01-27T15:31:43;10.30;99.90
34766;DHT22;20984;43.508;1.504;2024-01-27T15:34:09;10.20;99.90